John Quigg — WDB9828 — position and weather

sailwx.info

Track history (hours):
 
Tides and Currents Weather Stations Pressure Air Temp Water Temp Dewpoint Dewpoint Depression Visibility Wind Speed Wind Dir Waves Ship Positions

John Quigg

Owner: Harley Marine Services, Inc, Seattle, WA. More information available from US FCC via Universal Licensing System and Coast Guard Vessel Documentation Center.

Last reported at 2018-Aug-16 08:31 UTC. Time now 2018-Aug-16 08:45 UTC.
Position N 33°44' W 118°16'.

Length 27 m.

MMSI: 365934954.

Date/timePositionNaut miles runAvg speedWind from/ knotsBaromVisibWave heightAir tempDewpointWater temp
2018-Aug-16 08:31N 33°44' W 118°16'0 0.0
2018-Aug-16 08:01N 33°44' W 118°16'0 0.0
2018-Aug-16 07:30N 33°44' W 118°16'0 0.0
2018-Aug-16 07:00N 33°44' W 118°16'0 0.0
2018-Aug-16 06:30N 33°44' W 118°16'0 0.0
2018-Aug-16 06:00N 33°44' W 118°16'0 0.0
2018-Aug-16 05:30N 33°44' W 118°16'0 0.0
2018-Aug-16 05:00N 33°44' W 118°16'0 0.0
2018-Aug-16 04:29N 33°44' W 118°16'0 0.0
2018-Aug-16 04:00N 33°44' W 118°16'0 0.0
2018-Aug-16 03:30N 33°44' W 118°16'0 0.0
2018-Aug-16 03:00N 33°44' W 118°16'0 0.0
2018-Aug-16 02:30N 33°44' W 118°16'0 0.0
2018-Aug-16 02:00N 33°44' W 118°16'0 0.0
2018-Aug-16 01:30N 33°44' W 118°16'0 0.0
2018-Aug-16 01:00N 33°44' W 118°16'0 0.0
2018-Aug-16 00:30N 33°44' W 118°16'0 0.0
2018-Aug-16 00:00N 33°44' W 118°16'0 0.0
2018-Aug-15 23:30N 33°44' W 118°16'0 0.0
2018-Aug-15 23:00N 33°44' W 118°16'0 0.0
2018-Aug-15 22:30N 33°44' W 118°16'0 0.0
2018-Aug-15 22:00N 33°44' W 118°16'0 0.0
2018-Aug-15 21:30N 33°44' W 118°16'0 0.0
2018-Aug-15 21:00N 33°44' W 118°16'0 0.0
2018-Aug-15 20:30N 33°44' W 118°16'0 0.0
2018-Aug-15 20:00N 33°44' W 118°16'0 0.0
2018-Aug-15 19:30N 33°44' W 118°16'0 0.0
2018-Aug-15 19:00N 33°44' W 118°16'0 0.0
2018-Aug-15 18:30N 33°44' W 118°16'0 0.0
2018-Aug-15 18:00N 33°44' W 118°16'0 0.0
2018-Aug-15 17:30N 33°44' W 118°16'0 0.0
2018-Aug-15 17:00N 33°44' W 118°16'0 0.0
2018-Aug-15 16:30N 33°44' W 118°16'0 0.0
2018-Aug-15 16:00N 33°44' W 118°16'0 0.0
2018-Aug-15 15:30N 33°44' W 118°16'0 0.0
2018-Aug-15 15:00N 33°44' W 118°16'0 0.0
2018-Aug-15 14:30N 33°44' W 118°16'2 4.8
2018-Aug-15 14:00N 33°45' W 118°13'1 1.7
2018-Aug-15 13:30N 33°46' W 118°13'2 3.5
2018-Aug-15 12:59N 33°44' W 118°12'1 1.5
2018-Aug-15 12:30N 33°43' W 118°11'0 0.4
2018-Aug-15 11:59N 33°43' W 118°12'3 6.8
2018-Aug-15 11:30N 33°43' W 118°15'1 1.8
2018-Aug-15 11:00N 33°44' W 118°16'0 0.0
2018-Aug-15 10:30N 33°44' W 118°16'0 0.0
2018-Aug-15 10:00N 33°44' W 118°16'0 0.0
2018-Aug-15 09:30N 33°44' W 118°16'0 0.0
2018-Aug-15 09:00N 33°44' W 118°16'0 0.0
2018-Aug-15 08:30N 33°44' W 118°16'0 0.0
2018-Aug-15 08:00N 33°44' W 118°16'0 0.0
2018-Aug-15 07:30N 33°44' W 118°16'0 0.0
2018-Aug-15 07:00N 33°44' W 118°16'0 0.0
2018-Aug-15 06:30N 33°44' W 118°16'0 0.0
2018-Aug-15 06:00N 33°44' W 118°16'0 0.0
2018-Aug-15 05:30N 33°44' W 118°16'0 0.0
2018-Aug-15 05:00N 33°44' W 118°16'0 0.0
2018-Aug-15 04:30N 33°44' W 118°16'0 0.0
2018-Aug-15 04:00N 33°44' W 118°16'0 0.0
2018-Aug-15 03:30N 33°44' W 118°16'0 0.0
2018-Aug-15 03:00N 33°44' W 118°16'0 0.0
2018-Aug-15 02:30N 33°44' W 118°16'0 0.0
2018-Aug-15 02:00N 33°44' W 118°16'0 0.0
2018-Aug-15 01:30N 33°44' W 118°16'0 0.0
2018-Aug-15 01:00N 33°44' W 118°16'1 1.6
2018-Aug-15 00:30N 33°44' W 118°17'2 3.3
2018-Aug-15 00:00N 33°46' W 118°16'1 2.0
2018-Aug-14 23:30N 33°46' W 118°15'1 2.4
2018-Aug-14 23:00N 33°46' W 118°14'2 3.6
2018-Aug-14 22:31N 33°45' W 118°13'3 6.0
2018-Aug-14 22:00N 33°44' W 118°17'1 2.3
2018-Aug-14 21:31N 33°45' W 118°16'2 4.5
2018-Aug-14 21:00N 33°43' W 118°15'510.2
2018-Aug-14 20:30N 33°44' W 118°09'3 6.2
2018-Aug-14 20:00N 33°44' W 118°06'1 1.8
2018-Aug-14 19:30N 33°44' W 118°06'511.1
2018-Aug-14 19:00N 33°43' W 118°13'2 4.5
2018-Aug-14 18:30N 33°44' W 118°16'0 0.0
2018-Aug-14 18:00N 33°44' W 118°16'0 0.0
2018-Aug-14 17:30N 33°44' W 118°16'0 0.0
2018-Aug-14 17:00N 33°44' W 118°16'0 0.0
2018-Aug-14 16:30N 33°44' W 118°16'0 0.0
2018-Aug-14 16:00N 33°44' W 118°16'0 0.0
2018-Aug-14 15:30N 33°44' W 118°16'0 0.0
2018-Aug-14 15:00N 33°44' W 118°16'0 0.0
2018-Aug-14 14:29N 33°44' W 118°16'0 0.0
2018-Aug-14 14:00N 33°44' W 118°16'2 4.0
2018-Aug-14 13:30N 33°44' W 118°13'2 4.0
2018-Aug-14 13:00N 33°44' W 118°16'0 0.9
2018-Aug-14 12:30N 33°44' W 118°15'0 0.3
2018-Aug-14 12:00N 33°44' W 118°15'1 2.6
2018-Aug-14 11:30N 33°43' W 118°15'0 0.5
2018-Aug-14 11:00N 33°43' W 118°15'1 2.6
2018-Aug-14 10:30N 33°44' W 118°16'0 0.0
2018-Aug-14 10:00N 33°44' W 118°16'0 0.0
2018-Aug-14 09:30N 33°44' W 118°16'0 0.0
2018-Aug-14 09:00N 33°44' W 118°16'0 0.0
2018-Aug-14 08:30N 33°44' W 118°16'0 0.0
2018-Aug-14 08:00N 33°44' W 118°16'0 0.0
2018-Aug-14 07:30N 33°44' W 118°16'0 0.0
2018-Aug-14 07:00N 33°44' W 118°16'0 0.0
2018-Aug-14 06:30N 33°44' W 118°16'0 0.0
2018-Aug-14 06:00N 33°44' W 118°16'0 0.0
2018-Aug-14 05:30N 33°44' W 118°16'0 0.0
2018-Aug-14 05:00N 33°44' W 118°16'0 0.0
2018-Aug-14 04:30N 33°44' W 118°16'0 0.0
2018-Aug-14 04:00N 33°44' W 118°16'0 0.0
2018-Aug-14 03:30N 33°44' W 118°16'0 0.0
2018-Aug-14 03:00N 33°44' W 118°16'0 0.3
2018-Aug-14 02:31N 33°44' W 118°15'0 0.4
2018-Aug-14 02:00N 33°44' W 118°15'0 0.7
2018-Aug-14 01:30N 33°44' W 118°16'0 0.0
2018-Aug-14 01:00N 33°44' W 118°16'0 0.0
2018-Aug-14 00:30N 33°44' W 118°16'0 0.0
2018-Aug-14 00:00N 33°44' W 118°16'0 0.0
2018-Aug-13 23:30N 33°44' W 118°16'0 0.0
2018-Aug-13 23:00N 33°44' W 118°16'0 0.0
2018-Aug-13 22:30N 33°44' W 118°16'0 0.0
2018-Aug-13 22:00N 33°44' W 118°16'0 0.0
2018-Aug-13 21:30N 33°44' W 118°16'0 0.0
2018-Aug-13 21:00N 33°44' W 118°16'0 0.0
2018-Aug-13 20:30N 33°44' W 118°16'0 0.0
2018-Aug-13 20:00N 33°44' W 118°16'0 0.0
2018-Aug-13 19:30N 33°44' W 118°16'0 0.0
2018-Aug-13 19:00N 33°44' W 118°16'0 0.0
2018-Aug-13 18:30N 33°44' W 118°16'0 0.0
2018-Aug-13 17:59N 33°44' W 118°16'0 0.0
2018-Aug-13 17:30N 33°44' W 118°16'0 0.0
2018-Aug-13 17:00N 33°44' W 118°16'0 0.0
2018-Aug-13 16:30N 33°44' W 118°16'0 0.0
2018-Aug-13 16:00N 33°44' W 118°16'0 0.0
2018-Aug-13 15:30N 33°44' W 118°16'0 0.0
2018-Aug-13 15:00N 33°44' W 118°16'0 0.0
2018-Aug-13 14:30N 33°44' W 118°16'0 0.0
2018-Aug-13 14:00N 33°44' W 118°16'0 0.0
2018-Aug-13 13:30N 33°44' W 118°16'0 0.0
2018-Aug-13 13:00N 33°44' W 118°16'0 0.0
2018-Aug-13 12:30N 33°44' W 118°16'0 0.0
2018-Aug-13 12:00N 33°44' W 118°16'0 0.0
2018-Aug-13 11:30N 33°44' W 118°16'0 0.0
2018-Aug-13 11:00N 33°44' W 118°16'0 0.0
2018-Aug-13 10:30N 33°44' W 118°16'0 0.0
2018-Aug-13 10:00N 33°44' W 118°16'0 0.0
2018-Aug-13 09:30N 33°44' W 118°16'0 0.0
2018-Aug-13 09:00N 33°44' W 118°16'0 0.0
2018-Aug-13 08:30N 33°44' W 118°16'0 0.0
2018-Aug-13 08:00N 33°44' W 118°16'0 0.0
2018-Aug-13 07:30N 33°44' W 118°16'0 0.0
2018-Aug-13 07:00N 33°44' W 118°16'0 0.0
2018-Aug-13 06:30N 33°44' W 118°16'0 0.0
2018-Aug-13 06:00N 33°44' W 118°16'0 0.0
2018-Aug-13 05:30N 33°44' W 118°16'0 0.0
2018-Aug-13 05:00N 33°44' W 118°16'0 0.0
2018-Aug-13 04:30N 33°44' W 118°16'0 0.0
2018-Aug-13 04:00N 33°44' W 118°16'0 0.0
2018-Aug-13 03:30N 33°44' W 118°16'0 0.0
2018-Aug-13 03:00N 33°44' W 118°16'0 0.0
2018-Aug-13 02:30N 33°44' W 118°16'0 0.0
2018-Aug-13 02:00N 33°44' W 118°16'0 0.0
2018-Aug-13 01:30N 33°44' W 118°16'0 0.0
2018-Aug-13 01:00N 33°44' W 118°16'0 0.0
2018-Aug-13 00:30N 33°44' W 118°16'0 0.0
2018-Aug-13 00:00N 33°44' W 118°16'0 0.0
2018-Aug-12 23:30N 33°44' W 118°16'1 1.2
2018-Aug-12 23:00N 33°44' W 118°16'1 1.7
2018-Aug-12 22:30N 33°45' W 118°16'0 0.1
2018-Aug-12 22:00N 33°45' W 118°17'2 3.9
2018-Aug-12 21:30N 33°43' W 118°15'3 6.0
2018-Aug-12 21:00N 33°46' W 118°16'1 2.8
2018-Aug-12 20:30N 33°45' W 118°16'1 2.1
2018-Aug-12 20:00N 33°44' W 118°16'0 0.1
2018-Aug-12 19:30N 33°44' W 118°16'0 0.0
2018-Aug-12 19:00N 33°44' W 118°16'0 0.0
2018-Aug-12 18:30N 33°44' W 118°16'0 0.0
2018-Aug-12 18:00N 33°44' W 118°16'0 0.0
2018-Aug-12 17:30N 33°44' W 118°16'0 0.0
2018-Aug-12 17:00N 33°44' W 118°16'0 0.0
2018-Aug-12 16:30N 33°44' W 118°16'0 0.0
2018-Aug-12 16:00N 33°44' W 118°16'0 0.0
2018-Aug-12 15:30N 33°44' W 118°16'0 0.0
2018-Aug-12 15:00N 33°44' W 118°16'0 0.0
2018-Aug-12 14:30N 33°44' W 118°16'0 0.0
2018-Aug-12 14:00N 33°44' W 118°16'1 1.7
2018-Aug-12 13:30N 33°44' W 118°17'1 2.2
2018-Aug-12 13:00N 33°45' W 118°16'2 3.2
2018-Aug-12 12:30N 33°44' W 118°16'2 3.1
2018-Aug-12 12:00N 33°43' W 118°15'1 2.6
2018-Aug-12 11:30N 33°44' W 118°16'0 0.0
2018-Aug-12 11:00N 33°44' W 118°16'0 0.0
2018-Aug-12 10:30N 33°44' W 118°16'0 0.0
2018-Aug-12 10:00N 33°44' W 118°16'0 0.0
2018-Aug-12 09:30N 33°44' W 118°16'0 0.0
2018-Aug-12 09:00N 33°44' W 118°16'0 0.0
2018-Aug-12 08:30N 33°44' W 118°16'0 0.0
2018-Aug-12 08:00N 33°44' W 118°16'0 0.0
2018-Aug-12 07:30N 33°44' W 118°16'0 0.0
2018-Aug-12 07:00N 33°44' W 118°16'0 0.0
2018-Aug-12 06:30N 33°44' W 118°16'0 0.0
2018-Aug-12 05:59N 33°44' W 118°16'0 0.0
2018-Aug-12 05:30N 33°44' W 118°16'0 0.0
2018-Aug-12 05:00N 33°44' W 118°16'0 0.0
2018-Aug-12 04:30N 33°44' W 118°16'0 0.0
2018-Aug-12 04:00N 33°44' W 118°16'0 0.0
2018-Aug-12 03:30N 33°44' W 118°16'0 0.0
2018-Aug-12 03:00N 33°44' W 118°16'0 0.0
2018-Aug-12 02:30N 33°44' W 118°16'0 0.0
2018-Aug-12 02:00N 33°44' W 118°16'0 0.0
2018-Aug-12 01:30N 33°44' W 118°16'0 0.0
2018-Aug-12 01:00N 33°44' W 118°16'0 0.0
2018-Aug-12 00:30N 33°44' W 118°16'0 0.0
2018-Aug-12 00:00N 33°44' W 118°16'0 0.0
2018-Aug-11 23:30N 33°44' W 118°16'0 0.0
2018-Aug-11 23:00N 33°44' W 118°16'0 0.0
2018-Aug-11 22:30N 33°44' W 118°16'0 0.4
2018-Aug-11 22:00N 33°44' W 118°15'1 1.7
2018-Aug-11 21:30N 33°43' W 118°16'1 1.4
2018-Aug-11 21:00N 33°43' W 118°15'1 2.6
2018-Aug-11 20:30N 33°44' W 118°16'0 0.0
2018-Aug-11 20:00N 33°44' W 118°16'0 0.0
2018-Aug-11 19:30N 33°44' W 118°16'0 0.0
2018-Aug-11 19:00N 33°44' W 118°16'0 0.0
2018-Aug-11 18:30N 33°44' W 118°16'0 0.0
2018-Aug-11 18:00N 33°44' W 118°16'0 0.0
2018-Aug-11 17:30N 33°44' W 118°16'0 0.0
2018-Aug-11 17:00N 33°44' W 118°16'0 0.0
2018-Aug-11 16:30N 33°44' W 118°16'0 0.0
2018-Aug-11 16:00N 33°44' W 118°16'2 4.5
2018-Aug-11 15:30N 33°44' W 118°13'2 3.7
2018-Aug-11 15:00N 33°45' W 118°13'0 0.3
2018-Aug-11 14:30N 33°45' W 118°13'1 1.9
2018-Aug-11 14:00N 33°44' W 118°13'2 3.9
2018-Aug-11 13:30N 33°46' W 118°13'0 0.9
2018-Aug-11 12:59N 33°47' W 118°13'2 5.0
2018-Aug-11 12:30N 33°44' W 118°12'3 5.5
2018-Aug-11 12:00N 33°43' W 118°16'0 0.9
2018-Aug-11 11:30N 33°44' W 118°15'2 3.1
2018-Aug-11 11:00N 33°42' W 118°15'2 3.4
2018-Aug-11 10:30N 33°44' W 118°16'0 0.0
2018-Aug-11 10:00N 33°44' W 118°16'0 0.0
2018-Aug-11 09:30N 33°44' W 118°16'0 0.0
2018-Aug-11 09:00N 33°44' W 118°16'0 0.0
2018-Aug-11 08:30N 33°44' W 118°16'0 0.0
2018-Aug-11 07:59N 33°44' W 118°16'0 0.0
2018-Aug-11 07:30N 33°44' W 118°16'0 0.0
2018-Aug-11 07:00N 33°44' W 118°16'0 0.0
2018-Aug-11 06:30N 33°44' W 118°16'0 0.0
2018-Aug-11 06:00N 33°44' W 118°16'0 0.0
2018-Aug-11 05:30N 33°44' W 118°16'0 0.0
2018-Aug-11 05:00N 33°44' W 118°16'0 0.0
2018-Aug-11 04:30N 33°44' W 118°16'0 0.0
2018-Aug-11 04:00N 33°44' W 118°16'0 0.0
2018-Aug-11 03:30N 33°44' W 118°16'0 0.0
2018-Aug-11 03:00N 33°44' W 118°16'0 0.0
2018-Aug-11 02:30N 33°44' W 118°16'0 0.0
2018-Aug-11 02:00N 33°44' W 118°16'0 0.0
2018-Aug-11 01:30N 33°44' W 118°16'0 0.0
2018-Aug-11 01:00N 33°44' W 118°16'0 0.0
2018-Aug-11 00:30N 33°44' W 118°16'0 0.0
2018-Aug-11 00:00N 33°44' W 118°16'0 0.0
2018-Aug-10 23:30N 33°44' W 118°16'0 0.0
2018-Aug-10 23:00N 33°44' W 118°16'0 0.0
2018-Aug-10 22:30N 33°44' W 118°16'0 0.0
2018-Aug-10 22:00N 33°44' W 118°16'0 0.0
2018-Aug-10 21:30N 33°44' W 118°16'0 0.0
2018-Aug-10 21:00N 33°44' W 118°16'0 0.0
2018-Aug-10 20:30N 33°44' W 118°16'0 0.0
2018-Aug-10 20:00N 33°44' W 118°16'0 0.0
2018-Aug-10 19:30N 33°44' W 118°16'0 0.0
2018-Aug-10 19:00N 33°44' W 118°16'0 0.0
2018-Aug-10 18:30N 33°44' W 118°16'0 0.0
2018-Aug-10 18:00N 33°44' W 118°16'0 0.0
2018-Aug-10 17:30N 33°44' W 118°16'0 0.0
2018-Aug-10 17:00N 33°44' W 118°16'0 0.0
2018-Aug-10 16:30N 33°44' W 118°16'0 0.0
2018-Aug-10 16:00N 33°44' W 118°16'1 1.1
2018-Aug-10 15:30N 33°44' W 118°15'0 0.1
2018-Aug-10 15:00N 33°44' W 118°15'1 2.3
2018-Aug-10 14:30N 33°44' W 118°16'1 2.6
2018-Aug-10 14:00N 33°45' W 118°16'1 1.6
2018-Aug-10 13:31N 33°44' W 118°17'2 4.5
2018-Aug-10 13:00N 33°43' W 118°15'2 4.9
2018-Aug-10 12:30N 33°45' W 118°13'1 2.0
2018-Aug-10 12:00N 33°45' W 118°14'0 0.5
2018-Aug-10 11:30N 33°45' W 118°14'3 5.2
2018-Aug-10 11:00N 33°44' W 118°16'2 4.0
2018-Aug-10 10:30N 33°46' W 118°17'0 0.6
2018-Aug-10 10:00N 33°46' W 118°17'2 3.8
2018-Aug-10 09:30N 33°44' W 118°16'1 1.3
2018-Aug-10 09:00N 33°44' W 118°16'0 0.0
2018-Aug-10 08:30N 33°44' W 118°16'0 0.0
2018-Aug-10 08:00N 33°44' W 118°16'0 0.0
2018-Aug-10 07:30N 33°44' W 118°16'0 0.0
2018-Aug-10 07:00N 33°44' W 118°16'0 0.0
2018-Aug-10 06:30N 33°44' W 118°16'0 0.0
2018-Aug-10 06:00N 33°44' W 118°16'0 0.0
2018-Aug-10 05:30N 33°44' W 118°16'0 0.0
2018-Aug-10 05:00N 33°44' W 118°16'0 0.0
2018-Aug-10 04:30N 33°44' W 118°16'0 0.0
2018-Aug-10 04:00N 33°44' W 118°16'0 0.0
2018-Aug-10 03:30N 33°44' W 118°16'0 0.0
2018-Aug-10 03:00N 33°44' W 118°16'0 0.0
2018-Aug-10 02:30N 33°44' W 118°16'0 0.0
2018-Aug-10 02:00N 33°44' W 118°16'0 0.0
2018-Aug-10 01:30N 33°44' W 118°16'0 0.0
2018-Aug-10 01:00N 33°44' W 118°16'0 0.0
2018-Aug-10 00:30N 33°44' W 118°16'0 0.0
2018-Aug-10 00:00N 33°44' W 118°16'0 0.0
2018-Aug-09 23:30N 33°44' W 118°16'0 0.0
2018-Aug-09 23:00N 33°44' W 118°16'0 0.0
2018-Aug-09 22:30N 33°44' W 118°16'0 0.0
2018-Aug-09 22:00N 33°44' W 118°16'0 0.0
2018-Aug-09 21:30N 33°44' W 118°16'0 0.0
2018-Aug-09 21:00N 33°44' W 118°16'0 0.0
2018-Aug-09 20:30N 33°44' W 118°16'0 0.0
2018-Aug-09 20:00N 33°44' W 118°16'0 0.0
2018-Aug-09 19:30N 33°44' W 118°16'0 0.0
2018-Aug-09 19:00N 33°44' W 118°16'0 0.0
2018-Aug-09 18:30N 33°44' W 118°16'0 0.1
2018-Aug-09 18:00N 33°44' W 118°16'0 0.1
2018-Aug-09 17:30N 33°44' W 118°16'0 0.0
2018-Aug-09 17:00N 33°44' W 118°16'1 2.3
2018-Aug-09 16:30N 33°43' W 118°15'2 3.5
2018-Aug-09 16:00N 33°43' W 118°13'5 9.1
2018-Aug-09 15:29N 33°44' W 118°07'2 3.6
2018-Aug-09 15:00N 33°44' W 118°05'0 0.9
2018-Aug-09 14:30N 33°44' W 118°06'0 0.1
2018-Aug-09 14:00N 33°44' W 118°06'2 4.3
2018-Aug-09 13:30N 33°44' W 118°09'4 9.0
2018-Aug-09 13:00N 33°43' W 118°14'1 3.0
2018-Aug-09 12:31N 33°44' W 118°15'0 0.1
2018-Aug-09 12:00N 33°44' W 118°15'0 0.6
2018-Aug-09 11:30N 33°44' W 118°16'0 0.0
2018-Aug-09 11:00N 33°44' W 118°16'0 0.0
2018-Aug-09 10:30N 33°44' W 118°16'0 0.0
2018-Aug-09 10:00N 33°44' W 118°16'0 0.0
2018-Aug-09 09:30N 33°44' W 118°16'0 0.0
2018-Aug-09 09:00N 33°44' W 118°16'0 0.0
2018-Aug-09 08:30N 33°44' W 118°16'0 0.0
2018-Aug-09 08:00N 33°44' W 118°16'0 0.0
2018-Aug-09 07:30N 33°44' W 118°16'0 0.0
2018-Aug-09 07:00N 33°44' W 118°16'0 0.0
2018-Aug-09 06:30N 33°44' W 118°16'0 0.0
2018-Aug-09 06:00N 33°44' W 118°16'0 0.0
2018-Aug-09 05:30N 33°44' W 118°16'0 0.0
2018-Aug-09 05:00N 33°44' W 118°16'0 0.0
2018-Aug-09 04:30N 33°44' W 118°16'0 0.0
2018-Aug-09 04:00N 33°44' W 118°16'0 0.0
2018-Aug-09 03:30N 33°44' W 118°16'0 0.0
2018-Aug-09 03:00N 33°44' W 118°16'0 0.0
2018-Aug-09 02:29N 33°44' W 118°16'0 0.0
2018-Aug-09 02:00N 33°44' W 118°16'0 0.0
2018-Aug-09 01:30N 33°44' W 118°16'0 0.0
2018-Aug-09 01:00N 33°44' W 118°16'0 0.0
2018-Aug-09 00:30N 33°44' W 118°16'0 0.0
2018-Aug-09 00:00N 33°44' W 118°16'0 0.0
2018-Aug-08 23:30N 33°44' W 118°16'0 0.0
2018-Aug-08 23:00N 33°44' W 118°16'0 0.0
2018-Aug-08 22:30N 33°44' W 118°16'1 3.0
2018-Aug-08 22:00N 33°45' W 118°16'1 1.6
2018-Aug-08 21:30N 33°45' W 118°16'2 3.5
2018-Aug-08 21:00N 33°43' W 118°16'1 1.4
2018-Aug-08 20:30N 33°44' W 118°16'0 0.0
2018-Aug-08 20:00N 33°44' W 118°16'0 0.0
2018-Aug-08 19:30N 33°44' W 118°16'0 0.0
2018-Aug-08 19:00N 33°44' W 118°16'1 1.3
2018-Aug-08 18:30N 33°44' W 118°16'0 0.2
2018-Aug-08 18:00N 33°44' W 118°16'0 0.0
2018-Aug-08 17:30N 33°44' W 118°16'0 0.6
2018-Aug-08 17:00N 33°43' W 118°16'2 4.2
2018-Aug-08 16:30N 33°44' W 118°14'2 3.3
2018-Aug-08 16:00N 33°45' W 118°14'2 3.7
2018-Aug-08 15:30N 33°43' W 118°14'3 5.1
2018-Aug-08 15:00N 33°45' W 118°16'0 0.4
2018-Aug-08 14:30N 33°45' W 118°16'1 2.5
2018-Aug-08 14:00N 33°44' W 118°16'2 3.2
2018-Aug-08 13:30N 33°43' W 118°14'0 0.3
2018-Aug-08 13:00N 33°43' W 118°14'0 0.0
2018-Aug-08 12:30N 33°43' W 118°14'0 0.0
2018-Aug-08 12:00N 33°43' W 118°14'0 0.0
2018-Aug-08 11:30N 33°43' W 118°14'0 0.3
2018-Aug-08 11:00N 33°43' W 118°14'2 3.3
2018-Aug-08 10:30N 33°44' W 118°16'0 0.1
2018-Aug-08 10:00N 33°44' W 118°16'0 0.0
2018-Aug-08 09:30N 33°44' W 118°16'0 0.0
2018-Aug-08 09:00N 33°44' W 118°16'0 0.0
2018-Aug-08 08:30N 33°44' W 118°16'0 0.0
2018-Aug-08 08:00N 33°44' W 118°16'0 0.0
2018-Aug-08 07:30N 33°44' W 118°16'0 0.0
2018-Aug-08 07:00N 33°44' W 118°16'0 0.0
2018-Aug-08 06:30N 33°44' W 118°16'0 0.0
2018-Aug-08 06:00N 33°44' W 118°16'0 0.0
2018-Aug-08 05:30N 33°44' W 118°16'0 0.0
2018-Aug-08 05:00N 33°44' W 118°16'2 4.2
2018-Aug-08 04:30N 33°44' W 118°13'1 2.3
2018-Aug-08 03:59N 33°45' W 118°13'0 0.1
2018-Aug-08 03:30N 33°45' W 118°13'1 1.6
2018-Aug-08 03:00N 33°45' W 118°13'2 4.8
2018-Aug-08 02:31N 33°44' W 118°16'1 1.2
2018-Aug-08 02:00N 33°43' W 118°16'2 4.1
2018-Aug-08 01:30N 33°45' W 118°16'0 1.0
2018-Aug-08 01:00N 33°46' W 118°16'1 1.0
2018-Aug-08 00:30N 33°45' W 118°16'0 0.0
2018-Aug-08 00:00N 33°45' W 118°16'0 0.0
2018-Aug-07 23:30N 33°45' W 118°16'0 0.4
2018-Aug-07 23:00N 33°45' W 118°16'0 0.7
2018-Aug-07 22:30N 33°45' W 118°16'3 5.2
2018-Aug-07 22:00N 33°43' W 118°15'1 2.1
2018-Aug-07 21:31N 33°44' W 118°16'0 0.0
2018-Aug-07 21:00N 33°44' W 118°16'0 0.0
2018-Aug-07 20:30N 33°44' W 118°16'0 0.0
2018-Aug-07 20:00N 33°44' W 118°16'0 0.0
2018-Aug-07 19:30N 33°44' W 118°16'0 0.0
2018-Aug-07 19:00N 33°44' W 118°16'0 0.0
2018-Aug-07 18:30N 33°44' W 118°16'0 0.0
2018-Aug-07 18:00N 33°44' W 118°16'0 0.0
2018-Aug-07 17:30N 33°44' W 118°16'0 0.0
2018-Aug-07 17:00N 33°44' W 118°16'0 0.0
2018-Aug-07 16:30N 33°44' W 118°16'0 0.0
2018-Aug-07 16:00N 33°44' W 118°16'0 0.0
2018-Aug-07 15:30N 33°44' W 118°16'0 0.0
2018-Aug-07 15:00N 33°44' W 118°16'0 0.0
2018-Aug-07 14:30N 33°44' W 118°16'0 0.0
2018-Aug-07 14:00N 33°44' W 118°16'0 0.0
2018-Aug-07 13:30N 33°44' W 118°16'0 0.0
2018-Aug-07 13:00N 33°44' W 118°16'0 0.0
2018-Aug-07 12:30N 33°44' W 118°16'0 0.0
2018-Aug-07 12:00N 33°44' W 118°16'0 0.0
2018-Aug-07 11:30N 33°44' W 118°16'0 0.0
2018-Aug-07 11:00N 33°44' W 118°16'0 0.0
2018-Aug-07 10:30N 33°44' W 118°16'0 0.0
2018-Aug-07 10:00N 33°44' W 118°16'0 0.0
2018-Aug-07 09:30N 33°44' W 118°16'0 0.0
2018-Aug-07 09:00N 33°44' W 118°16'0 0.0
2018-Aug-07 08:30N 33°44' W 118°16'0 0.0
2018-Aug-07 08:00N 33°44' W 118°16'0 0.0
2018-Aug-07 07:30N 33°44' W 118°16'0 0.0
2018-Aug-07 07:00N 33°44' W 118°16'0 0.0
2018-Aug-07 06:30N 33°44' W 118°16'0 0.0
2018-Aug-07 06:00N 33°44' W 118°16'0 0.0
2018-Aug-07 05:30N 33°44' W 118°16'0 0.0
2018-Aug-07 05:00N 33°44' W 118°16'0 0.0
2018-Aug-07 04:30N 33°44' W 118°16'0 0.0
2018-Aug-07 04:00N 33°44' W 118°16'0 0.0
2018-Aug-07 03:30N 33°44' W 118°16'1 1.3
2018-Aug-07 03:00N 33°43' W 118°16'0 0.7
2018-Aug-07 02:30N 33°43' W 118°16'2 4.4
2018-Aug-07 02:00N 33°46' W 118°16'2 4.9
2018-Aug-07 01:30N 33°43' W 118°16'1 1.3
2018-Aug-07 01:00N 33°44' W 118°16'2 3.7
2018-Aug-07 00:30N 33°46' W 118°16'0 0.0
2018-Aug-07 00:00N 33°46' W 118°16'0 0.0
2018-Aug-06 23:30N 33°46' W 118°16'0 0.7
2018-Aug-06 23:00N 33°46' W 118°17'1 1.0
2018-Aug-06 22:30N 33°45' W 118°17'0 0.1
2018-Aug-06 22:00N 33°45' W 118°17'1 2.2
2018-Aug-06 21:30N 33°44' W 118°17'2 4.3
2018-Aug-06 21:00N 33°43' W 118°15'1 2.7
2018-Aug-06 20:30N 33°44' W 118°16'0 0.0
2018-Aug-06 20:00N 33°44' W 118°16'0 0.0
2018-Aug-06 19:30N 33°44' W 118°16'0 0.0
2018-Aug-06 19:00N 33°44' W 118°16'0 0.0
2018-Aug-06 18:30N 33°44' W 118°16'0 0.0
2018-Aug-06 18:00N 33°44' W 118°16'0 0.0
2018-Aug-06 17:30N 33°44' W 118°16'0 0.0
2018-Aug-06 17:00N 33°44' W 118°16'0 0.0
2018-Aug-06 16:30N 33°44' W 118°16'0 0.0
2018-Aug-06 16:00N 33°44' W 118°16'0 0.0
2018-Aug-06 15:30N 33°44' W 118°16'0 0.0
2018-Aug-06 15:00N 33°44' W 118°16'0 0.0
2018-Aug-06 14:30N 33°44' W 118°16'0 0.0
2018-Aug-06 14:00N 33°44' W 118°16'0 0.0
2018-Aug-06 13:30N 33°44' W 118°16'0 0.0
2018-Aug-06 13:00N 33°44' W 118°16'0 0.0
2018-Aug-06 12:30N 33°44' W 118°16'0 0.0
2018-Aug-06 12:00N 33°44' W 118°16'0 0.0
2018-Aug-06 11:30N 33°44' W 118°16'0 0.0
2018-Aug-06 11:00N 33°44' W 118°16'0 0.0
2018-Aug-06 10:30N 33°44' W 118°16'0 0.0
2018-Aug-06 10:00N 33°44' W 118°16'0 0.0
2018-Aug-06 09:29N 33°44' W 118°16'0 0.0
2018-Aug-06 09:00N 33°44' W 118°16'  
Track history (hours):
 
Tides and Currents Weather Stations Pressure Air Temp Water Temp Dewpoint Dewpoint Depression Visibility Wind Speed Wind Dir Waves Ship Positions

John Quigg

Owner: Harley Marine Services, Inc, Seattle, WA. More information available from US FCC via Universal Licensing System and Coast Guard Vessel Documentation Center.

Last reported at 2018-Aug-16 08:31 UTC. Time now 2018-Aug-16 08:45 UTC.
Position N 33°44' W 118°16'.

Length 27 m.

MMSI: 365934954.

Date/timePositionNaut miles runAvg speedWind from/ knotsBaromVisibWave heightAir tempDewpointWater temp
2018-Aug-16 08:31N 33°44' W 118°16'0 0.0
2018-Aug-16 08:01N 33°44' W 118°16'0 0.0
2018-Aug-16 07:30N 33°44' W 118°16'0 0.0
2018-Aug-16 07:00N 33°44' W 118°16'0 0.0
2018-Aug-16 06:30N 33°44' W 118°16'0 0.0
2018-Aug-16 06:00N 33°44' W 118°16'0 0.0
2018-Aug-16 05:30N 33°44' W 118°16'0 0.0
2018-Aug-16 05:00N 33°44' W 118°16'0 0.0
2018-Aug-16 04:29N 33°44' W 118°16'0 0.0
2018-Aug-16 04:00N 33°44' W 118°16'0 0.0
2018-Aug-16 03:30N 33°44' W 118°16'0 0.0
2018-Aug-16 03:00N 33°44' W 118°16'0 0.0
2018-Aug-16 02:30N 33°44' W 118°16'0 0.0
2018-Aug-16 02:00N 33°44' W 118°16'0 0.0
2018-Aug-16 01:30N 33°44' W 118°16'0 0.0
2018-Aug-16 01:00N 33°44' W 118°16'0 0.0
2018-Aug-16 00:30N 33°44' W 118°16'0 0.0
2018-Aug-16 00:00N 33°44' W 118°16'0 0.0
2018-Aug-15 23:30N 33°44' W 118°16'0 0.0
2018-Aug-15 23:00N 33°44' W 118°16'0 0.0
2018-Aug-15 22:30N 33°44' W 118°16'0 0.0
2018-Aug-15 22:00N 33°44' W 118°16'0 0.0
2018-Aug-15 21:30N 33°44' W 118°16'0 0.0
2018-Aug-15 21:00N 33°44' W 118°16'0 0.0
2018-Aug-15 20:30N 33°44' W 118°16'0 0.0
2018-Aug-15 20:00N 33°44' W 118°16'0 0.0
2018-Aug-15 19:30N 33°44' W 118°16'0 0.0
2018-Aug-15 19:00N 33°44' W 118°16'0 0.0
2018-Aug-15 18:30N 33°44' W 118°16'0 0.0
2018-Aug-15 18:00N 33°44' W 118°16'0 0.0
2018-Aug-15 17:30N 33°44' W 118°16'0 0.0
2018-Aug-15 17:00N 33°44' W 118°16'0 0.0
2018-Aug-15 16:30N 33°44' W 118°16'0 0.0
2018-Aug-15 16:00N 33°44' W 118°16'0 0.0
2018-Aug-15 15:30N 33°44' W 118°16'0 0.0
2018-Aug-15 15:00N 33°44' W 118°16'0 0.0
2018-Aug-15 14:30N 33°44' W 118°16'2 4.8
2018-Aug-15 14:00N 33°45' W 118°13'1 1.7
2018-Aug-15 13:30N 33°46' W 118°13'2 3.5
2018-Aug-15 12:59N 33°44' W 118°12'1 1.5
2018-Aug-15 12:30N 33°43' W 118°11'0 0.4
2018-Aug-15 11:59N 33°43' W 118°12'3 6.8
2018-Aug-15 11:30N 33°43' W 118°15'1 1.8
2018-Aug-15 11:00N 33°44' W 118°16'0 0.0
2018-Aug-15 10:30N 33°44' W 118°16'0 0.0
2018-Aug-15 10:00N 33°44' W 118°16'0 0.0
2018-Aug-15 09:30N 33°44' W 118°16'0 0.0
2018-Aug-15 09:00N 33°44' W 118°16'0 0.0
2018-Aug-15 08:30N 33°44' W 118°16'0 0.0
2018-Aug-15 08:00N 33°44' W 118°16'0 0.0
2018-Aug-15 07:30N 33°44' W 118°16'0 0.0
2018-Aug-15 07:00N 33°44' W 118°16'0 0.0
2018-Aug-15 06:30N 33°44' W 118°16'0 0.0
2018-Aug-15 06:00N 33°44' W 118°16'0 0.0
2018-Aug-15 05:30N 33°44' W 118°16'0 0.0
2018-Aug-15 05:00N 33°44' W 118°16'0 0.0
2018-Aug-15 04:30N 33°44' W 118°16'0 0.0
2018-Aug-15 04:00N 33°44' W 118°16'0 0.0
2018-Aug-15 03:30N 33°44' W 118°16'0 0.0
2018-Aug-15 03:00N 33°44' W 118°16'0 0.0
2018-Aug-15 02:30N 33°44' W 118°16'0 0.0
2018-Aug-15 02:00N 33°44' W 118°16'0 0.0
2018-Aug-15 01:30N 33°44' W 118°16'0 0.0
2018-Aug-15 01:00N 33°44' W 118°16'1 1.6
2018-Aug-15 00:30N 33°44' W 118°17'2 3.3
2018-Aug-15 00:00N 33°46' W 118°16'1 2.0
2018-Aug-14 23:30N 33°46' W 118°15'1 2.4
2018-Aug-14 23:00N 33°46' W 118°14'2 3.6
2018-Aug-14 22:31N 33°45' W 118°13'3 6.0
2018-Aug-14 22:00N 33°44' W 118°17'1 2.3
2018-Aug-14 21:31N 33°45' W 118°16'2 4.5
2018-Aug-14 21:00N 33°43' W 118°15'510.2
2018-Aug-14 20:30N 33°44' W 118°09'3 6.2
2018-Aug-14 20:00N 33°44' W 118°06'1 1.8
2018-Aug-14 19:30N 33°44' W 118°06'511.1
2018-Aug-14 19:00N 33°43' W 118°13'2 4.5
2018-Aug-14 18:30N 33°44' W 118°16'0 0.0
2018-Aug-14 18:00N 33°44' W 118°16'0 0.0
2018-Aug-14 17:30N 33°44' W 118°16'0 0.0
2018-Aug-14 17:00N 33°44' W 118°16'0 0.0
2018-Aug-14 16:30N 33°44' W 118°16'0 0.0
2018-Aug-14 16:00N 33°44' W 118°16'0 0.0
2018-Aug-14 15:30N 33°44' W 118°16'0 0.0
2018-Aug-14 15:00N 33°44' W 118°16'0 0.0
2018-Aug-14 14:29N 33°44' W 118°16'0 0.0
2018-Aug-14 14:00N 33°44' W 118°16'2 4.0
2018-Aug-14 13:30N 33°44' W 118°13'2 4.0
2018-Aug-14 13:00N 33°44' W 118°16'0 0.9
2018-Aug-14 12:30N 33°44' W 118°15'0 0.3
2018-Aug-14 12:00N 33°44' W 118°15'1 2.6
2018-Aug-14 11:30N 33°43' W 118°15'0 0.5
2018-Aug-14 11:00N 33°43' W 118°15'1 2.6
2018-Aug-14 10:30N 33°44' W 118°16'0 0.0
2018-Aug-14 10:00N 33°44' W 118°16'0 0.0
2018-Aug-14 09:30N 33°44' W 118°16'0 0.0
2018-Aug-14 09:00N 33°44' W 118°16'0 0.0
2018-Aug-14 08:30N 33°44' W 118°16'0 0.0
2018-Aug-14 08:00N 33°44' W 118°16'0 0.0
2018-Aug-14 07:30N 33°44' W 118°16'0 0.0
2018-Aug-14 07:00N 33°44' W 118°16'0 0.0
2018-Aug-14 06:30N 33°44' W 118°16'0 0.0
2018-Aug-14 06:00N 33°44' W 118°16'0 0.0
2018-Aug-14 05:30N 33°44' W 118°16'0 0.0
2018-Aug-14 05:00N 33°44' W 118°16'0 0.0
2018-Aug-14 04:30N 33°44' W 118°16'0 0.0
2018-Aug-14 04:00N 33°44' W 118°16'0 0.0
2018-Aug-14 03:30N 33°44' W 118°16'0 0.0
2018-Aug-14 03:00N 33°44' W 118°16'0 0.3
2018-Aug-14 02:31N 33°44' W 118°15'0 0.4
2018-Aug-14 02:00N 33°44' W 118°15'0 0.7
2018-Aug-14 01:30N 33°44' W 118°16'0 0.0
2018-Aug-14 01:00N 33°44' W 118°16'0 0.0
2018-Aug-14 00:30N 33°44' W 118°16'0 0.0
2018-Aug-14 00:00N 33°44' W 118°16'0 0.0
2018-Aug-13 23:30N 33°44' W 118°16'0 0.0
2018-Aug-13 23:00N 33°44' W 118°16'0 0.0
2018-Aug-13 22:30N 33°44' W 118°16'0 0.0
2018-Aug-13 22:00N 33°44' W 118°16'0 0.0
2018-Aug-13 21:30N 33°44' W 118°16'0 0.0
2018-Aug-13 21:00N 33°44' W 118°16'0 0.0
2018-Aug-13 20:30N 33°44' W 118°16'0 0.0
2018-Aug-13 20:00N 33°44' W 118°16'0 0.0
2018-Aug-13 19:30N 33°44' W 118°16'0 0.0
2018-Aug-13 19:00N 33°44' W 118°16'0 0.0
2018-Aug-13 18:30N 33°44' W 118°16'0 0.0
2018-Aug-13 17:59N 33°44' W 118°16'0 0.0
2018-Aug-13 17:30N 33°44' W 118°16'0 0.0
2018-Aug-13 17:00N 33°44' W 118°16'0 0.0
2018-Aug-13 16:30N 33°44' W 118°16'0 0.0
2018-Aug-13 16:00N 33°44' W 118°16'0 0.0
2018-Aug-13 15:30N 33°44' W 118°16'0 0.0
2018-Aug-13 15:00N 33°44' W 118°16'0 0.0
2018-Aug-13 14:30N 33°44' W 118°16'0 0.0
2018-Aug-13 14:00N 33°44' W 118°16'0 0.0
2018-Aug-13 13:30N 33°44' W 118°16'0 0.0
2018-Aug-13 13:00N 33°44' W 118°16'0 0.0
2018-Aug-13 12:30N 33°44' W 118°16'0 0.0
2018-Aug-13 12:00N 33°44' W 118°16'0 0.0
2018-Aug-13 11:30N 33°44' W 118°16'0 0.0
2018-Aug-13 11:00N 33°44' W 118°16'0 0.0
2018-Aug-13 10:30N 33°44' W 118°16'0 0.0
2018-Aug-13 10:00N 33°44' W 118°16'0 0.0
2018-Aug-13 09:30N 33°44' W 118°16'0 0.0
2018-Aug-13 09:00N 33°44' W 118°16'0 0.0
2018-Aug-13 08:30N 33°44' W 118°16'0 0.0
2018-Aug-13 08:00N 33°44' W 118°16'0 0.0
2018-Aug-13 07:30N 33°44' W 118°16'0 0.0
2018-Aug-13 07:00N 33°44' W 118°16'0 0.0
2018-Aug-13 06:30N 33°44' W 118°16'0 0.0
2018-Aug-13 06:00N 33°44' W 118°16'0 0.0
2018-Aug-13 05:30N 33°44' W 118°16'0 0.0
2018-Aug-13 05:00N 33°44' W 118°16'0 0.0
2018-Aug-13 04:30N 33°44' W 118°16'0 0.0
2018-Aug-13 04:00N 33°44' W 118°16'0 0.0
2018-Aug-13 03:30N 33°44' W 118°16'0 0.0
2018-Aug-13 03:00N 33°44' W 118°16'0 0.0
2018-Aug-13 02:30N 33°44' W 118°16'0 0.0
2018-Aug-13 02:00N 33°44' W 118°16'0 0.0
2018-Aug-13 01:30N 33°44' W 118°16'0 0.0
2018-Aug-13 01:00N 33°44' W 118°16'0 0.0
2018-Aug-13 00:30N 33°44' W 118°16'0 0.0
2018-Aug-13 00:00N 33°44' W 118°16'0 0.0
2018-Aug-12 23:30N 33°44' W 118°16'1 1.2
2018-Aug-12 23:00N 33°44' W 118°16'1 1.7
2018-Aug-12 22:30N 33°45' W 118°16'0 0.1
2018-Aug-12 22:00N 33°45' W 118°17'2 3.9
2018-Aug-12 21:30N 33°43' W 118°15'3 6.0
2018-Aug-12 21:00N 33°46' W 118°16'1 2.8
2018-Aug-12 20:30N 33°45' W 118°16'1 2.1
2018-Aug-12 20:00N 33°44' W 118°16'0 0.1
2018-Aug-12 19:30N 33°44' W 118°16'0 0.0
2018-Aug-12 19:00N 33°44' W 118°16'0 0.0
2018-Aug-12 18:30N 33°44' W 118°16'0 0.0
2018-Aug-12 18:00N 33°44' W 118°16'0 0.0
2018-Aug-12 17:30N 33°44' W 118°16'0 0.0
2018-Aug-12 17:00N 33°44' W 118°16'0 0.0
2018-Aug-12 16:30N 33°44' W 118°16'0 0.0
2018-Aug-12 16:00N 33°44' W 118°16'0 0.0
2018-Aug-12 15:30N 33°44' W 118°16'0 0.0
2018-Aug-12 15:00N 33°44' W 118°16'0 0.0
2018-Aug-12 14:30N 33°44' W 118°16'0 0.0
2018-Aug-12 14:00N 33°44' W 118°16'1 1.7
2018-Aug-12 13:30N 33°44' W 118°17'1 2.2
2018-Aug-12 13:00N 33°45' W 118°16'2 3.2
2018-Aug-12 12:30N 33°44' W 118°16'2 3.1
2018-Aug-12 12:00N 33°43' W 118°15'1 2.6
2018-Aug-12 11:30N 33°44' W 118°16'0 0.0
2018-Aug-12 11:00N 33°44' W 118°16'0 0.0
2018-Aug-12 10:30N 33°44' W 118°16'0 0.0
2018-Aug-12 10:00N 33°44' W 118°16'0 0.0
2018-Aug-12 09:30N 33°44' W 118°16'0 0.0
2018-Aug-12 09:00N 33°44' W 118°16'0 0.0
2018-Aug-12 08:30N 33°44' W 118°16'0 0.0
2018-Aug-12 08:00N 33°44' W 118°16'0 0.0
2018-Aug-12 07:30N 33°44' W 118°16'0 0.0
2018-Aug-12 07:00N 33°44' W 118°16'0 0.0
2018-Aug-12 06:30N 33°44' W 118°16'0 0.0
2018-Aug-12 05:59N 33°44' W 118°16'0 0.0
2018-Aug-12 05:30N 33°44' W 118°16'0 0.0
2018-Aug-12 05:00N 33°44' W 118°16'0 0.0
2018-Aug-12 04:30N 33°44' W 118°16'0 0.0
2018-Aug-12 04:00N 33°44' W 118°16'0 0.0
2018-Aug-12 03:30N 33°44' W 118°16'0 0.0
2018-Aug-12 03:00N 33°44' W 118°16'0 0.0
2018-Aug-12 02:30N 33°44' W 118°16'0 0.0
2018-Aug-12 02:00N 33°44' W 118°16'0 0.0
2018-Aug-12 01:30N 33°44' W 118°16'0 0.0
2018-Aug-12 01:00N 33°44' W 118°16'0 0.0
2018-Aug-12 00:30N 33°44' W 118°16'0 0.0
2018-Aug-12 00:00N 33°44' W 118°16'0 0.0
2018-Aug-11 23:30N 33°44' W 118°16'0 0.0
2018-Aug-11 23:00N 33°44' W 118°16'0 0.0
2018-Aug-11 22:30N 33°44' W 118°16'0 0.4
2018-Aug-11 22:00N 33°44' W 118°15'1 1.7
2018-Aug-11 21:30N 33°43' W 118°16'1 1.4
2018-Aug-11 21:00N 33°43' W 118°15'1 2.6
2018-Aug-11 20:30N 33°44' W 118°16'0 0.0
2018-Aug-11 20:00N 33°44' W 118°16'0 0.0
2018-Aug-11 19:30N 33°44' W 118°16'0 0.0
2018-Aug-11 19:00N 33°44' W 118°16'0 0.0
2018-Aug-11 18:30N 33°44' W 118°16'0 0.0
2018-Aug-11 18:00N 33°44' W 118°16'0 0.0
2018-Aug-11 17:30N 33°44' W 118°16'0 0.0
2018-Aug-11 17:00N 33°44' W 118°16'0 0.0
2018-Aug-11 16:30N 33°44' W 118°16'0 0.0
2018-Aug-11 16:00N 33°44' W 118°16'2 4.5
2018-Aug-11 15:30N 33°44' W 118°13'2 3.7
2018-Aug-11 15:00N 33°45' W 118°13'0 0.3
2018-Aug-11 14:30N 33°45' W 118°13'1 1.9
2018-Aug-11 14:00N 33°44' W 118°13'2 3.9
2018-Aug-11 13:30N 33°46' W 118°13'0 0.9
2018-Aug-11 12:59N 33°47' W 118°13'2 5.0
2018-Aug-11 12:30N 33°44' W 118°12'3 5.5
2018-Aug-11 12:00N 33°43' W 118°16'0 0.9
2018-Aug-11 11:30N 33°44' W 118°15'2 3.1
2018-Aug-11 11:00N 33°42' W 118°15'2 3.4
2018-Aug-11 10:30N 33°44' W 118°16'0 0.0
2018-Aug-11 10:00N 33°44' W 118°16'0 0.0
2018-Aug-11 09:30N 33°44' W 118°16'0 0.0
2018-Aug-11 09:00N 33°44' W 118°16'0 0.0
2018-Aug-11 08:30N 33°44' W 118°16'0 0.0
2018-Aug-11 07:59N 33°44' W 118°16'0 0.0
2018-Aug-11 07:30N 33°44' W 118°16'0 0.0
2018-Aug-11 07:00N 33°44' W 118°16'0 0.0
2018-Aug-11 06:30N 33°44' W 118°16'0 0.0
2018-Aug-11 06:00N 33°44' W 118°16'0 0.0
2018-Aug-11 05:30N 33°44' W 118°16'0 0.0
2018-Aug-11 05:00N 33°44' W 118°16'0 0.0
2018-Aug-11 04:30N 33°44' W 118°16'0 0.0
2018-Aug-11 04:00N 33°44' W 118°16'0 0.0
2018-Aug-11 03:30N 33°44' W 118°16'0 0.0
2018-Aug-11 03:00N 33°44' W 118°16'0 0.0
2018-Aug-11 02:30N 33°44' W 118°16'0 0.0
2018-Aug-11 02:00N 33°44' W 118°16'0 0.0
2018-Aug-11 01:30N 33°44' W 118°16'0 0.0
2018-Aug-11 01:00N 33°44' W 118°16'0 0.0
2018-Aug-11 00:30N 33°44' W 118°16'0 0.0
2018-Aug-11 00:00N 33°44' W 118°16'0 0.0
2018-Aug-10 23:30N 33°44' W 118°16'0 0.0
2018-Aug-10 23:00N 33°44' W 118°16'0 0.0
2018-Aug-10 22:30N 33°44' W 118°16'0 0.0
2018-Aug-10 22:00N 33°44' W 118°16'0 0.0
2018-Aug-10 21:30N 33°44' W 118°16'0 0.0
2018-Aug-10 21:00N 33°44' W 118°16'0 0.0
2018-Aug-10 20:30N 33°44' W 118°16'0 0.0
2018-Aug-10 20:00N 33°44' W 118°16'0 0.0
2018-Aug-10 19:30N 33°44' W 118°16'0 0.0
2018-Aug-10 19:00N 33°44' W 118°16'0 0.0
2018-Aug-10 18:30N 33°44' W 118°16'0 0.0
2018-Aug-10 18:00N 33°44' W 118°16'0 0.0
2018-Aug-10 17:30N 33°44' W 118°16'0 0.0
2018-Aug-10 17:00N 33°44' W 118°16'0 0.0
2018-Aug-10 16:30N 33°44' W 118°16'0 0.0
2018-Aug-10 16:00N 33°44' W 118°16'1 1.1
2018-Aug-10 15:30N 33°44' W 118°15'0 0.1
2018-Aug-10 15:00N 33°44' W 118°15'1 2.3
2018-Aug-10 14:30N 33°44' W 118°16'1 2.6
2018-Aug-10 14:00N 33°45' W 118°16'1 1.6
2018-Aug-10 13:31N 33°44' W 118°17'2 4.5
2018-Aug-10 13:00N 33°43' W 118°15'2 4.9
2018-Aug-10 12:30N 33°45' W 118°13'1 2.0
2018-Aug-10 12:00N 33°45' W 118°14'0 0.5
2018-Aug-10 11:30N 33°45' W 118°14'3 5.2
2018-Aug-10 11:00N 33°44' W 118°16'2 4.0
2018-Aug-10 10:30N 33°46' W 118°17'0 0.6
2018-Aug-10 10:00N 33°46' W 118°17'2 3.8
2018-Aug-10 09:30N 33°44' W 118°16'1 1.3
2018-Aug-10 09:00N 33°44' W 118°16'0 0.0
2018-Aug-10 08:30N 33°44' W 118°16'0 0.0
2018-Aug-10 08:00N 33°44' W 118°16'0 0.0
2018-Aug-10 07:30N 33°44' W 118°16'0 0.0
2018-Aug-10 07:00N 33°44' W 118°16'0 0.0
2018-Aug-10 06:30N 33°44' W 118°16'0 0.0
2018-Aug-10 06:00N 33°44' W 118°16'0 0.0
2018-Aug-10 05:30N 33°44' W 118°16'0 0.0
2018-Aug-10 05:00N 33°44' W 118°16'0 0.0
2018-Aug-10 04:30N 33°44' W 118°16'0 0.0
2018-Aug-10 04:00N 33°44' W 118°16'0 0.0
2018-Aug-10 03:30N 33°44' W 118°16'0 0.0
2018-Aug-10 03:00N 33°44' W 118°16'0 0.0
2018-Aug-10 02:30N 33°44' W 118°16'0 0.0
2018-Aug-10 02:00N 33°44' W 118°16'0 0.0
2018-Aug-10 01:30N 33°44' W 118°16'0 0.0
2018-Aug-10 01:00N 33°44' W 118°16'0 0.0
2018-Aug-10 00:30N 33°44' W 118°16'0 0.0
2018-Aug-10 00:00N 33°44' W 118°16'0 0.0
2018-Aug-09 23:30N 33°44' W 118°16'0 0.0
2018-Aug-09 23:00N 33°44' W 118°16'0 0.0
2018-Aug-09 22:30N 33°44' W 118°16'0 0.0
2018-Aug-09 22:00N 33°44' W 118°16'0 0.0
2018-Aug-09 21:30N 33°44' W 118°16'0 0.0
2018-Aug-09 21:00N 33°44' W 118°16'0 0.0
2018-Aug-09 20:30N 33°44' W 118°16'0 0.0
2018-Aug-09 20:00N 33°44' W 118°16'0 0.0
2018-Aug-09 19:30N 33°44' W 118°16'0 0.0
2018-Aug-09 19:00N 33°44' W 118°16'0 0.0
2018-Aug-09 18:30N 33°44' W 118°16'0 0.1
2018-Aug-09 18:00N 33°44' W 118°16'0 0.1
2018-Aug-09 17:30N 33°44' W 118°16'0 0.0
2018-Aug-09 17:00N 33°44' W 118°16'1 2.3
2018-Aug-09 16:30N 33°43' W 118°15'2 3.5
2018-Aug-09 16:00N 33°43' W 118°13'5 9.1
2018-Aug-09 15:29N 33°44' W 118°07'2 3.6
2018-Aug-09 15:00N 33°44' W 118°05'0 0.9
2018-Aug-09 14:30N 33°44' W 118°06'0 0.1
2018-Aug-09 14:00N 33°44' W 118°06'2 4.3
2018-Aug-09 13:30N 33°44' W 118°09'4 9.0
2018-Aug-09 13:00N 33°43' W 118°14'1 3.0
2018-Aug-09 12:31N 33°44' W 118°15'0 0.1
2018-Aug-09 12:00N 33°44' W 118°15'0 0.6
2018-Aug-09 11:30N 33°44' W 118°16'0 0.0
2018-Aug-09 11:00N 33°44' W 118°16'0 0.0
2018-Aug-09 10:30N 33°44' W 118°16'0 0.0
2018-Aug-09 10:00N 33°44' W 118°16'0 0.0
2018-Aug-09 09:30N 33°44' W 118°16'0 0.0
2018-Aug-09 09:00N 33°44' W 118°16'0 0.0
2018-Aug-09 08:30N 33°44' W 118°16'0 0.0
2018-Aug-09 08:00N 33°44' W 118°16'0 0.0
2018-Aug-09 07:30N 33°44' W 118°16'0 0.0
2018-Aug-09 07:00N 33°44' W 118°16'0 0.0
2018-Aug-09 06:30N 33°44' W 118°16'0 0.0
2018-Aug-09 06:00N 33°44' W 118°16'0 0.0
2018-Aug-09 05:30N 33°44' W 118°16'0 0.0
2018-Aug-09 05:00N 33°44' W 118°16'0 0.0
2018-Aug-09 04:30N 33°44' W 118°16'0 0.0
2018-Aug-09 04:00N 33°44' W 118°16'0 0.0
2018-Aug-09 03:30N 33°44' W 118°16'0 0.0
2018-Aug-09 03:00N 33°44' W 118°16'0 0.0
2018-Aug-09 02:29N 33°44' W 118°16'0 0.0
2018-Aug-09 02:00N 33°44' W 118°16'0 0.0
2018-Aug-09 01:30N 33°44' W 118°16'0 0.0
2018-Aug-09 01:00N 33°44' W 118°16'0 0.0
2018-Aug-09 00:30N 33°44' W 118°16'0 0.0
2018-Aug-09 00:00N 33°44' W 118°16'0 0.0
2018-Aug-08 23:30N 33°44' W 118°16'0 0.0
2018-Aug-08 23:00N 33°44' W 118°16'0 0.0
2018-Aug-08 22:30N 33°44' W 118°16'1 3.0
2018-Aug-08 22:00N 33°45' W 118°16'1 1.6
2018-Aug-08 21:30N 33°45' W 118°16'2 3.5
2018-Aug-08 21:00N 33°43' W 118°16'1 1.4
2018-Aug-08 20:30N 33°44' W 118°16'0 0.0
2018-Aug-08 20:00N 33°44' W 118°16'0 0.0
2018-Aug-08 19:30N 33°44' W 118°16'0 0.0
2018-Aug-08 19:00N 33°44' W 118°16'1 1.3
2018-Aug-08 18:30N 33°44' W 118°16'0 0.2
2018-Aug-08 18:00N 33°44' W 118°16'0 0.0
2018-Aug-08 17:30N 33°44' W 118°16'0 0.6
2018-Aug-08 17:00N 33°43' W 118°16'2 4.2
2018-Aug-08 16:30N 33°44' W 118°14'2 3.3
2018-Aug-08 16:00N 33°45' W 118°14'2 3.7
2018-Aug-08 15:30N 33°43' W 118°14'3 5.1
2018-Aug-08 15:00N 33°45' W 118°16'0 0.4
2018-Aug-08 14:30N 33°45' W 118°16'1 2.5
2018-Aug-08 14:00N 33°44' W 118°16'2 3.2
2018-Aug-08 13:30N 33°43' W 118°14'0 0.3
2018-Aug-08 13:00N 33°43' W 118°14'0 0.0
2018-Aug-08 12:30N 33°43' W 118°14'0 0.0
2018-Aug-08 12:00N 33°43' W 118°14'0 0.0
2018-Aug-08 11:30N 33°43' W 118°14'0 0.3
2018-Aug-08 11:00N 33°43' W 118°14'2 3.3
2018-Aug-08 10:30N 33°44' W 118°16'0 0.1
2018-Aug-08 10:00N 33°44' W 118°16'0 0.0
2018-Aug-08 09:30N 33°44' W 118°16'0 0.0
2018-Aug-08 09:00N 33°44' W 118°16'0 0.0
2018-Aug-08 08:30N 33°44' W 118°16'0 0.0
2018-Aug-08 08:00N 33°44' W 118°16'0 0.0
2018-Aug-08 07:30N 33°44' W 118°16'0 0.0
2018-Aug-08 07:00N 33°44' W 118°16'0 0.0
2018-Aug-08 06:30N 33°44' W 118°16'0 0.0
2018-Aug-08 06:00N 33°44' W 118°16'0 0.0
2018-Aug-08 05:30N 33°44' W 118°16'0 0.0
2018-Aug-08 05:00N 33°44' W 118°16'2 4.2
2018-Aug-08 04:30N 33°44' W 118°13'1 2.3
2018-Aug-08 03:59N 33°45' W 118°13'0 0.1
2018-Aug-08 03:30N 33°45' W 118°13'1 1.6
2018-Aug-08 03:00N 33°45' W 118°13'2 4.8
2018-Aug-08 02:31N 33°44' W 118°16'1 1.2
2018-Aug-08 02:00N 33°43' W 118°16'2 4.1
2018-Aug-08 01:30N 33°45' W 118°16'0 1.0
2018-Aug-08 01:00N 33°46' W 118°16'1 1.0
2018-Aug-08 00:30N 33°45' W 118°16'0 0.0
2018-Aug-08 00:00N 33°45' W 118°16'0 0.0
2018-Aug-07 23:30N 33°45' W 118°16'0 0.4
2018-Aug-07 23:00N 33°45' W 118°16'0 0.7
2018-Aug-07 22:30N 33°45' W 118°16'3 5.2
2018-Aug-07 22:00N 33°43' W 118°15'1 2.1
2018-Aug-07 21:31N 33°44' W 118°16'0 0.0
2018-Aug-07 21:00N 33°44' W 118°16'0 0.0
2018-Aug-07 20:30N 33°44' W 118°16'0 0.0
2018-Aug-07 20:00N 33°44' W 118°16'0 0.0
2018-Aug-07 19:30N 33°44' W 118°16'0 0.0
2018-Aug-07 19:00N 33°44' W 118°16'0 0.0
2018-Aug-07 18:30N 33°44' W 118°16'0 0.0
2018-Aug-07 18:00N 33°44' W 118°16'0 0.0
2018-Aug-07 17:30N 33°44' W 118°16'0 0.0
2018-Aug-07 17:00N 33°44' W 118°16'0 0.0
2018-Aug-07 16:30N 33°44' W 118°16'0 0.0
2018-Aug-07 16:00N 33°44' W 118°16'0 0.0
2018-Aug-07 15:30N 33°44' W 118°16'0 0.0
2018-Aug-07 15:00N 33°44' W 118°16'0 0.0
2018-Aug-07 14:30N 33°44' W 118°16'0 0.0
2018-Aug-07 14:00N 33°44' W 118°16'0 0.0
2018-Aug-07 13:30N 33°44' W 118°16'0 0.0
2018-Aug-07 13:00N 33°44' W 118°16'0 0.0
2018-Aug-07 12:30N 33°44' W 118°16'0 0.0
2018-Aug-07 12:00N 33°44' W 118°16'0 0.0
2018-Aug-07 11:30N 33°44' W 118°16'0 0.0
2018-Aug-07 11:00N 33°44' W 118°16'0 0.0
2018-Aug-07 10:30N 33°44' W 118°16'0 0.0
2018-Aug-07 10:00N 33°44' W 118°16'0 0.0
2018-Aug-07 09:30N 33°44' W 118°16'0 0.0
2018-Aug-07 09:00N 33°44' W 118°16'0 0.0
2018-Aug-07 08:30N 33°44' W 118°16'0 0.0
2018-Aug-07 08:00N 33°44' W 118°16'0 0.0
2018-Aug-07 07:30N 33°44' W 118°16'0 0.0
2018-Aug-07 07:00N 33°44' W 118°16'0 0.0
2018-Aug-07 06:30N 33°44' W 118°16'0 0.0
2018-Aug-07 06:00N 33°44' W 118°16'0 0.0
2018-Aug-07 05:30N 33°44' W 118°16'0 0.0
2018-Aug-07 05:00N 33°44' W 118°16'0 0.0
2018-Aug-07 04:30N 33°44' W 118°16'0 0.0
2018-Aug-07 04:00N 33°44' W 118°16'0 0.0
2018-Aug-07 03:30N 33°44' W 118°16'1 1.3
2018-Aug-07 03:00N 33°43' W 118°16'0 0.7
2018-Aug-07 02:30N 33°43' W 118°16'2 4.4
2018-Aug-07 02:00N 33°46' W 118°16'2 4.9
2018-Aug-07 01:30N 33°43' W 118°16'1 1.3
2018-Aug-07 01:00N 33°44' W 118°16'2 3.7
2018-Aug-07 00:30N 33°46' W 118°16'0 0.0
2018-Aug-07 00:00N 33°46' W 118°16'0 0.0
2018-Aug-06 23:30N 33°46' W 118°16'0 0.7
2018-Aug-06 23:00N 33°46' W 118°17'1 1.0
2018-Aug-06 22:30N 33°45' W 118°17'0 0.1
2018-Aug-06 22:00N 33°45' W 118°17'1 2.2
2018-Aug-06 21:30N 33°44' W 118°17'2 4.3
2018-Aug-06 21:00N 33°43' W 118°15'1 2.7
2018-Aug-06 20:30N 33°44' W 118°16'0 0.0
2018-Aug-06 20:00N 33°44' W 118°16'0 0.0
2018-Aug-06 19:30N 33°44' W 118°16'0 0.0
2018-Aug-06 19:00N 33°44' W 118°16'0 0.0
2018-Aug-06 18:30N 33°44' W 118°16'0 0.0
2018-Aug-06 18:00N 33°44' W 118°16'0 0.0
2018-Aug-06 17:30N 33°44' W 118°16'0 0.0
2018-Aug-06 17:00N 33°44' W 118°16'0 0.0
2018-Aug-06 16:30N 33°44' W 118°16'0 0.0
2018-Aug-06 16:00N 33°44' W 118°16'0 0.0
2018-Aug-06 15:30N 33°44' W 118°16'0 0.0
2018-Aug-06 15:00N 33°44' W 118°16'0 0.0
2018-Aug-06 14:30N 33°44' W 118°16'0 0.0
2018-Aug-06 14:00N 33°44' W 118°16'0 0.0
2018-Aug-06 13:30N 33°44' W 118°16'0 0.0
2018-Aug-06 13:00N 33°44' W 118°16'0 0.0
2018-Aug-06 12:30N 33°44' W 118°16'0 0.0
2018-Aug-06 12:00N 33°44' W 118°16'0 0.0
2018-Aug-06 11:30N 33°44' W 118°16'0 0.0
2018-Aug-06 11:00N 33°44' W 118°16'0 0.0
2018-Aug-06 10:30N 33°44' W 118°16'0 0.0
2018-Aug-06 10:00N 33°44' W 118°16'0 0.0
2018-Aug-06 09:29N 33°44' W 118°16'0 0.0
2018-Aug-06 09:00N 33°44' W 118°16'  

Dump ship's entire track history